Time;durP1;ratioP1;P1;durP2;ratioP2;P2;SDS_P1;SDS_P2;PMS_P1;PMS_P2;Temp;Humidity;BMP_temperature;BMP_pressure;BME280_temperature;BME280_humidity;BME280_pressure;Samples;Min_cycle;Max_cycle;Signal;HPM_P1;HPM_P2
2021/11/19 00:02:08;;;;;;;27.73;8.93;;;12.30;99.90;;;;;;4846228;29;20479;-83
2021/11/19 00:04:34;;;;;;;21.25;7.90;;;12.30;99.90;;;;;;4844977;29;20065;-82
2021/11/19 00:07:01;;;;;;;19.63;7.70;;;12.30;99.90;;;;;;4845531;29;20033;-85
2021/11/19 00:09:28;;;;;;;17.40;7.97;;;12.40;99.90;;;;;;4848030;29;20069;-83
2021/11/19 00:11:55;;;;;;;23.42;8.25;;;12.40;99.90;;;;;;4856919;29;20037;-83
2021/11/19 00:14:22;;;;;;;21.60;8.93;;;12.40;99.90;;;;;;4872167;29;20386;-82
2021/11/19 00:16:55;;;;;;;14.17;5.60;;;12.40;99.90;;;;;;4869278;29;20561;-82
2021/11/19 00:19:22;;;;;;;17.77;7.38;;;12.40;99.90;;;;;;4865173;29;20294;-82
2021/11/19 00:21:47;;;;;;;17.67;8.07;;;12.40;99.90;;;;;;4864735;29;20166;-84
2021/11/19 00:24:13;;;;;;;18.27;7.45;;;12.40;99.90;;;;;;4862365;29;20488;-82
2021/11/19 00:26:40;;;;;;;21.17;7.60;;;12.40;99.90;;;;;;4877430;29;20030;-84
2021/11/19 00:29:07;;;;;;;18.80;7.40;;;12.40;99.90;;;;;;4864618;29;20045;-84
2021/11/19 00:31:33;;;;;;;15.88;7.35;;;12.40;99.90;;;;;;4854460;29;20049;-83
2021/11/19 00:33:59;;;;;;;13.73;6.22;;;12.50;99.90;;;;;;4865990;29;20037;-85
2021/11/19 00:36:27;;;;;;;18.88;7.65;;;12.50;99.90;;;;;;4864128;29;20045;-84
2021/11/19 00:38:56;;;;;;;21.17;7.70;;;12.50;99.90;;;;;;4865506;29;20030;-84
2021/11/19 00:41:22;;;;;;;15.63;6.57;;;12.50;99.90;;;;;;4864715;29;20086;-84
2021/11/19 00:43:48;;;;;;;15.90;6.97;;;12.50;99.90;;;;;;4864884;29;20068;-83
2021/11/19 00:46:14;;;;;;;15.07;6.75;;;12.50;99.90;;;;;;4847539;29;20029;-84
2021/11/19 00:48:41;;;;;;;19.95;7.30;;;12.50;99.90;;;;;;4847592;29;20491;-83
2021/11/19 00:51:11;;;;;;;17.23;6.65;;;12.50;99.90;;;;;;4847948;29;20037;-82
2021/11/19 00:53:39;;;;;;;17.42;7.72;;;12.50;99.90;;;;;;4847680;29;20518;-82
2021/11/19 00:56:05;;;;;;;14.45;7.47;;;12.50;99.90;;;;;;4864713;29;20033;-83
2021/11/19 00:58:32;;;;;;;16.95;7.65;;;12.50;99.90;;;;;;4864248;29;20041;-81
2021/11/19 01:01:03;;;;;;;17.38;6.97;;;12.50;99.90;;;;;;4847609;29;20101;-83
2021/11/19 01:03:30;;;;;;;21.00;7.38;;;12.60;99.90;;;;;;4852959;29;20037;-83
2021/11/19 01:05:56;;;;;;;22.42;8.43;;;12.50;99.90;;;;;;4863154;29;20037;-83
2021/11/19 01:08:23;;;;;;;19.10;7.13;;;12.60;99.90;;;;;;4869795;29;20390;-84
2021/11/19 01:10:51;;;;;;;19.48;8.18;;;12.60;99.90;;;;;;4855521;29;20116;-82
2021/11/19 01:13:17;;;;;;;;;;;12.60;99.90;;;;;;4863373;29;20042;-83
2021/11/19 01:15:48;;;;;;;15.32;7.53;;;12.60;99.90;;;;;;4851102;29;19918;-84
2021/11/19 01:18:19;;;;;;;19.77;8.77;;;12.60;99.90;;;;;;4864364;29;20036;-82
2021/11/19 01:20:50;;;;;;;14.63;7.22;;;12.60;99.90;;;;;;4853676;29;20380;-84
2021/11/19 01:23:21;;;;;;;19.13;7.80;;;12.60;99.90;;;;;;4863358;29;20025;-83
2021/11/19 01:25:51;;;;;;;17.33;8.57;;;12.60;99.90;;;;;;4857621;29;20057;-84
2021/11/19 01:28:17;;;;;;;21.63;8.30;;;12.60;99.90;;;;;;4855396;29;20561;-84
2021/11/19 01:30:48;;;;;;;16.65;7.88;;;12.60;99.90;;;;;;4859994;29;20072;-82
2021/11/19 01:33:14;;;;;;;17.25;8.18;;;12.60;99.90;;;;;;4862452;29;20029;-84
2021/11/19 01:35:41;;;;;;;20.58;7.93;;;12.60;99.90;;;;;;4847669;29;20089;-82
2021/11/19 01:38:07;;;;;;;17.48;8.07;;;12.60;99.90;;;;;;4846582;29;20610;-82
2021/11/19 01:40:42;;;;;;;20.60;9.50;;;12.60;99.90;;;;;;4844914;29;20372;-82
2021/11/19 01:43:10;;;;;;;22.05;9.00;;;12.60;99.90;;;;;;4862149;29;20026;-83
2021/11/19 01:45:42;;;;;;;15.27;7.40;;;12.60;99.90;;;;;;4861689;29;20033;-82
2021/11/19 01:48:12;;;;;;;16.58;7.57;;;12.60;99.90;;;;;;4857738;29;20112;-83
2021/11/19 01:51:01;;;;;;;16.83;9.18;;;12.60;99.90;;;;;;4861156;29;20068;-85
2021/11/19 01:53:40;;;;;;;20.05;9.13;;;12.60;99.90;;;;;;4863170;29;20072;-83
2021/11/19 01:56:38;;;;;;;18.30;8.90;;;12.60;99.90;;;;;;4840135;29;20405;-81
2021/11/19 01:59:07;;;;;;;;;;;12.60;99.90;;;;;;4858720;29;20166;-84
2021/11/19 02:01:50;;;;;;;24.58;8.75;;;12.60;99.90;;;;;;4870274;29;20065;-83
2021/11/19 02:04:33;;;;;;;23.98;9.07;;;12.60;99.90;;;;;;4862577;29;20029;-84
2021/11/19 02:07:02;;;;;;;18.20;8.57;;;12.60;99.90;;;;;;4863384;29;20506;-83
2021/11/19 02:09:53;;;;;;;20.13;9.40;;;12.60;99.90;;;;;;4842283;29;20526;-83
2021/11/19 02:12:31;;;;;;;18.58;8.48;;;12.60;99.90;;;;;;4862887;29;20033;-83
2021/11/19 02:15:09;;;;;;;21.88;10.27;;;12.70;99.90;;;;;;4847675;29;20079;-83
2021/11/19 02:17:36;;;;;;;26.10;9.57;;;12.70;99.90;;;;;;4866257;29;20128;-82
2021/11/19 02:20:08;;;;;;;17.95;10.35;;;12.60;99.90;;;;;;4863026;29;20041;-81
2021/11/19 02:22:43;;;;;;;22.95;9.57;;;12.60;99.90;;;;;;4847012;29;20033;-83
2021/11/19 02:25:16;;;;;;;21.25;9.55;;;12.60;99.90;;;;;;4861220;29;20029;-83
2021/11/19 02:28:05;;;;;;;22.00;9.10;;;12.60;99.90;;;;;;4847039;29;20117;-84
2021/11/19 02:30:47;;;;;;;18.23;9.93;;;12.60;99.90;;;;;;4857996;29;20038;-82
2021/11/19 02:33:15;;;;;;;25.58;9.68;;;12.60;99.90;;;;;;4862136;29;20104;-85
2021/11/19 02:35:49;;;;;;;;;;;12.70;99.90;;;;;;4863767;29;20402;-84
2021/11/19 02:38:18;;;;;;;18.98;9.38;;;12.60;99.90;;;;;;4863295;29;19951;-83
2021/11/19 02:40:44;;;;;;;19.27;9.05;;;12.60;99.90;;;;;;4846613;29;20128;-85
2021/11/19 02:43:21;;;;;;;18.23;9.20;;;12.60;99.90;;;;;;4862657;29;20038;-84
2021/11/19 02:45:51;;;;;;;24.48;9.00;;;12.60;99.90;;;;;;4842628;29;20495;-84
2021/11/19 02:48:21;;;;;;;23.00;10.57;;;12.50;99.90;;;;;;4862331;29;20037;-84
2021/11/19 02:50:48;;;;;;;19.30;9.43;;;12.60;99.90;;;;;;4861818;29;20037;-84
2021/11/19 02:53:15;;;;;;;17.73;9.70;;;12.50;99.90;;;;;;4862033;29;20037;-82
2021/11/19 02:55:45;;;;;;;19.10;9.53;;;12.50;99.90;;;;;;4860357;29;20029;-83
2021/11/19 02:58:16;;;;;;;17.30;10.10;;;12.50;99.90;;;;;;4864034;29;20052;-82
2021/11/19 03:01:00;;;;;;;16.33;9.60;;;12.50;99.90;;;;;;4854266;29;20124;-82
2021/11/19 03:03:27;;;;;;;36.97;10.55;;;12.60;99.90;;;;;;4844786;29;20033;-83
2021/11/19 03:05:53;;;;;;;19.23;9.68;;;12.60;99.90;;;;;;4861788;29;20037;-83
2021/11/19 03:08:19;;;;;;;18.17;10.25;;;12.60;99.90;;;;;;4845177;29;20036;-83
2021/11/19 03:10:47;;;;;;;19.23;10.02;;;12.50;99.90;;;;;;4844768;29;20088;-83
2021/11/19 03:13:15;;;;;;;30.92;10.95;;;12.50;99.90;;;;;;4861452;29;20037;-84
2021/11/19 03:15:45;;;;;;;18.17;10.13;;;12.50;99.90;;;;;;4859897;29;20033;-84
2021/11/19 03:18:13;;;;;;;23.98;10.98;;;12.50;99.90;;;;;;4861292;29;20631;-83
2021/11/19 03:20:39;;;;;;;24.17;9.57;;;12.50;99.90;;;;;;4845931;29;20041;-84
2021/11/19 03:23:06;;;;;;;23.50;10.40;;;12.50;99.90;;;;;;4846536;29;20045;-84
2021/11/19 03:25:37;;;;;;;20.30;9.95;;;12.50;99.90;;;;;;4862500;29;20029;-84
2021/11/19 03:28:05;;;;;;;20.73;10.93;;;12.50;99.90;;;;;;4879709;29;20062;-83
2021/11/19 03:30:32;;;;;;;23.63;10.77;;;12.50;99.90;;;;;;4872079;29;20034;-83
2021/11/19 03:32:58;;;;;;;23.58;10.43;;;12.50;99.90;;;;;;4846361;29;20068;-84
2021/11/19 03:35:26;;;;;;;26.75;11.63;;;12.50;99.90;;;;;;4861895;29;20026;-82
2021/11/19 03:37:54;;;;;;;23.27;11.32;;;12.50;99.90;;;;;;4876790;29;20041;-85
2021/11/19 03:40:28;;;;;;;25.98;11.95;;;12.50;99.90;;;;;;4864153;29;20120;-83
2021/11/19 03:42:54;;;;;;;21.58;10.27;;;12.60;99.90;;;;;;4881244;29;20025;-82
2021/11/19 03:45:25;;;;;;;27.75;12.57;;;12.50;99.90;;;;;;4854536;29;20475;-81
2021/11/19 03:47:53;;;;;;;30.65;13.32;;;12.50;99.90;;;;;;4844879;29;20029;-83
2021/11/19 03:50:47;;;;;;;20.88;10.95;;;12.50;99.90;;;;;;4861995;29;20037;-83
2021/11/19 03:53:14;;;;;;;25.65;12.00;;;12.50;99.90;;;;;;4840787;29;20091;-82
2021/11/19 03:55:46;;;;;;;27.25;11.15;;;12.50;99.90;;;;;;4844382;29;20068;-83
2021/11/19 03:58:15;;;;;;;29.40;12.88;;;12.50;99.90;;;;;;4851513;29;20375;-82
2021/11/19 04:00:45;;;;;;;19.90;11.52;;;12.50;99.90;;;;;;4845424;29;20033;-83
2021/11/19 04:03:12;;;;;;;25.35;11.18;;;12.50;99.90;;;;;;4862626;29;20482;-82
2021/11/19 04:05:38;;;;;;;12.35;7.55;;;12.60;99.90;;;;;;4861243;29;20107;-82
2021/11/19 04:08:05;;;;;;;25.88;11.50;;;12.60;99.90;;;;;;4862166;29;20487;-80
2021/11/19 04:10:32;;;;;;;21.27;11.63;;;12.60;99.90;;;;;;4861636;29;20025;-82
2021/11/19 04:12:57;;;;;;;30.17;11.35;;;12.60;99.90;;;;;;4845522;29;20456;-81
2021/11/19 04:15:28;;;;;;;23.13;11.80;;;12.60;99.90;;;;;;4845381;29;20076;-82
2021/11/19 04:17:54;;;;;;;24.10;10.73;;;12.60;99.90;;;;;;4851458;29;20038;-81
2021/11/19 04:20:21;;;;;;;29.55;11.90;;;12.60;99.90;;;;;;4868796;29;20037;-80
2021/11/19 04:22:47;;;;;;;26.08;10.73;;;12.60;99.90;;;;;;4880479;29;20367;-81
2021/11/19 04:25:16;;;;;;;23.58;10.50;;;12.60;99.90;;;;;;4863605;29;20510;-81
2021/11/19 04:27:42;;;;;;;27.67;11.43;;;12.60;99.90;;;;;;4863019;29;20398;-81
2021/11/19 04:30:16;;;;;;;26.02;10.70;;;12.60;99.90;;;;;;4849944;29;20025;-82
2021/11/19 04:32:42;;;;;;;24.50;11.50;;;12.60;99.90;;;;;;4844730;29;20029;-81
2021/11/19 04:35:09;;;;;;;22.13;10.48;;;12.60;99.90;;;;;;4845130;29;20030;-82
2021/11/19 04:37:34;;;;;;;26.98;11.73;;;12.60;99.90;;;;;;4861470;29;20034;-82
2021/11/19 04:40:00;;;;;;;23.52;10.88;;;12.60;99.90;;;;;;4847206;29;20045;-81
2021/11/19 04:42:26;;;;;;;26.38;10.38;;;12.60;99.90;;;;;;4848267;29;20130;-82
2021/11/19 04:44:52;;;;;;;25.17;10.80;;;12.60;99.90;;;;;;4864656;29;20030;-81
2021/11/19 04:47:19;;;;;;;21.58;10.02;;;12.70;99.90;;;;;;4848189;29;20033;-81
2021/11/19 04:49:45;;;;;;;24.50;11.27;;;12.70;99.90;;;;;;4865449;29;20049;-81
2021/11/19 04:52:12;;;;;;;18.00;10.05;;;12.70;99.90;;;;;;4843946;29;20287;-81
2021/11/19 04:54:39;;;;;;;30.42;10.30;;;12.70;99.90;;;;;;4832406;29;20591;-81
2021/11/19 04:57:05;;;;;;;21.35;9.25;;;12.70;99.90;;;;;;4847950;29;20372;-82
2021/11/19 04:59:31;;;;;;;26.17;11.10;;;12.70;99.90;;;;;;4866255;29;20053;-80
2021/11/19 05:02:01;;;;;;;27.02;10.93;;;12.80;99.90;;;;;;4846546;29;20030;-81
2021/11/19 05:04:28;;;;;;;25.98;10.68;;;12.70;99.90;;;;;;4847716;29;20022;-83
2021/11/19 05:06:54;;;;;;;23.55;10.25;;;12.70;99.90;;;;;;4863816;29;20376;-81
2021/11/19 05:09:20;;;;;;;21.88;10.05;;;12.80;99.90;;;;;;4863914;29;20034;-81
2021/11/19 05:12:03;;;;;;;19.85;9.90;;;12.80;99.90;;;;;;4846941;29;20053;-81
2021/11/19 05:14:29;;;;;;;20.08;9.32;;;12.80;99.90;;;;;;4863597;29;20394;-81
2021/11/19 05:16:55;;;;;;;20.77;9.93;;;12.80;99.90;;;;;;4863187;29;20038;-81
2021/11/19 05:19:20;;;;;;;16.83;9.65;;;12.80;99.90;;;;;;4879423;29;20073;-81
2021/11/19 05:21:47;;;;;;;26.98;9.75;;;12.80;99.90;;;;;;4869914;29;20062;-81
2021/11/19 05:24:13;;;;;;;22.05;9.38;;;12.70;99.90;;;;;;4863801;29;20029;-81
2021/11/19 05:26:42;;;;;;;17.42;9.13;;;12.80;99.90;;;;;;4863813;29;20061;-82
2021/11/19 05:29:09;;;;;;;17.63;9.73;;;12.80;99.90;;;;;;4847715;29;20041;-80
2021/11/19 05:31:35;;;;;;;25.88;10.48;;;12.70;99.90;;;;;;4863587;29;20037;-80
2021/11/19 05:34:01;;;;;;;19.58;10.10;;;12.80;99.90;;;;;;4855387;29;20107;-81
2021/11/19 05:36:27;;;;;;;17.55;9.70;;;12.80;99.90;;;;;;4865624;29;20163;-81
2021/11/19 05:38:53;;;;;;;23.52;9.77;;;12.80;99.90;;;;;;4867165;29;20049;-81
2021/11/19 05:41:21;;;;;;;18.83;9.05;;;12.80;99.90;;;;;;4846053;29;20049;-80
2021/11/19 05:43:49;;;;;;;18.10;8.82;;;12.80;99.90;;;;;;4862798;29;20029;-80
2021/11/19 05:46:18;;;;;;;20.35;8.45;;;12.90;99.90;;;;;;4862409;29;20033;-80
2021/11/19 05:48:45;;;;;;;23.35;9.85;;;12.90;99.90;;;;;;4846832;29;20198;-80
2021/11/19 05:51:11;;;;;;;20.65;8.93;;;12.80;99.90;;;;;;4865828;29;20502;-80
2021/11/19 05:53:36;;;;;;;18.65;8.98;;;12.80;99.90;;;;;;4846706;29;20081;-80
2021/11/19 05:56:02;;;;;;;16.17;8.35;;;12.80;99.90;;;;;;4846014;29;20065;-80
2021/11/19 05:58:28;;;;;;;17.33;9.25;;;12.90;99.90;;;;;;4862872;29;20056;-80
2021/11/19 06:00:57;;;;;;;30.88;10.38;;;12.90;99.90;;;;;;4846069;29;20064;-80
2021/11/19 06:03:24;;;;;;;23.42;8.48;;;12.90;99.90;;;;;;4839551;29;20049;-79
2021/11/19 06:05:50;;;;;;;24.38;8.75;;;12.90;99.90;;;;;;4862695;29;20029;-80
2021/11/19 06:08:16;;;;;;;17.17;8.77;;;12.90;99.90;;;;;;4862472;29;20490;-80
2021/11/19 06:10:50;;;;;;;21.60;8.88;;;13.00;99.90;;;;;;4853143;29;20025;-79
2021/11/19 06:13:18;;;;;;;15.68;8.23;;;13.00;99.90;;;;;;4845741;29;20521;-80
2021/11/19 06:15:57;;;;;;;15.38;8.30;;;12.90;99.90;;;;;;4845789;29;20094;-79
2021/11/19 06:18:27;;;;;;;18.52;8.75;;;12.90;99.90;;;;;;4862406;29;20026;-79
2021/11/19 06:21:00;;;;;;;15.13;8.15;;;12.90;99.90;;;;;;4862016;29;20406;-80
2021/11/19 06:23:31;;;;;;;19.38;8.57;;;12.90;99.90;;;;;;4862893;29;20124;-80
2021/11/19 06:25:59;;;;;;;19.17;8.70;;;12.90;99.90;;;;;;4862493;29;20036;-81
2021/11/19 06:28:30;;;;;;;14.35;8.13;;;13.00;99.90;;;;;;4862089;29;20502;-80
2021/11/19 06:30:55;;;;;;;22.42;8.82;;;12.90;99.90;;;;;;4861855;29;20045;-81
2021/11/19 06:33:22;;;;;;;18.17;8.70;;;13.00;99.90;;;;;;4844702;29;20426;-81
2021/11/19 06:35:48;;;;;;;18.90;8.90;;;13.00;99.90;;;;;;4861403;29;20507;-81
2021/11/19 06:38:16;;;;;;;15.27;8.45;;;13.00;99.90;;;;;;4861854;29;20036;-79
2021/11/19 06:40:42;;;;;;;18.23;8.07;;;13.00;99.90;;;;;;4861345;29;20498;-80
2021/11/19 06:43:08;;;;;;;19.50;8.40;;;13.00;99.90;;;;;;4844983;29;20486;-80
2021/11/19 06:45:35;;;;;;;19.52;8.25;;;13.00;99.90;;;;;;4861470;29;20033;-81
2021/11/19 06:48:04;;;;;;;22.05;8.73;;;13.00;99.90;;;;;;4844764;29;20022;-81
2021/11/19 06:50:30;;;;;;;16.90;8.40;;;13.00;99.90;;;;;;4861413;29;20037;-80
2021/11/19 06:52:56;;;;;;;16.48;7.40;;;13.00;99.90;;;;;;4842220;29;20034;-80
2021/11/19 06:55:22;;;;;;;17.67;7.88;;;13.00;99.90;;;;;;4861277;29;20032;-80
2021/11/19 06:57:48;;;;;;;15.95;7.80;;;13.00;99.90;;;;;;4860853;29;20620;-81
2021/11/19 07:00:18;;;;;;;18.08;6.97;;;13.00;99.90;;;;;;4845099;29;20021;-81
2021/11/19 07:02:44;;;;;;;21.35;8.98;;;13.00;99.90;;;;;;4860619;29;20017;-79
2021/11/19 07:05:11;;;;;;;16.88;6.97;;;13.10;99.90;;;;;;4861598;29;20028;-80
2021/11/19 07:07:36;;;;;;;41.17;8.48;;;13.00;99.90;;;;;;4844504;29;20080;-81
2021/11/19 07:10:04;;;;;;;84.50;15.35;;;13.00;99.90;;;;;;4844676;29;20495;-80
2021/11/19 07:12:30;;;;;;;170.20;25.40;;;13.00;99.90;;;;;;4861714;29;20029;-82
2021/11/19 07:14:56;;;;;;;437.20;61.30;;;13.00;99.90;;;;;;4861542;29;20399;-81
2021/11/19 07:17:22;;;;;;;201.52;30.40;;;13.00;99.90;;;;;;4844438;29;20033;-80
2021/11/19 07:19:47;;;;;;;94.30;15.82;;;13.00;99.90;;;;;;4861091;29;20492;-81
2021/11/19 07:22:14;;;;;;;147.25;20.80;;;13.00;99.90;;;;;;4844785;29;20022;-81
2021/11/19 07:24:40;;;;;;;99.15;18.50;;;13.00;99.90;;;;;;4862503;29;20029;-80
2021/11/19 07:27:07;;;;;;;181.13;27.20;;;13.10;99.90;;;;;;4851930;29;20035;-81
2021/11/19 07:29:33;;;;;;;43.67;11.70;;;13.10;99.90;;;;;;4861496;29;20033;-81
2021/11/19 07:31:59;;;;;;;20.85;7.70;;;13.10;99.90;;;;;;4844241;29;20025;-81
2021/11/19 07:34:25;;;;;;;22.63;7.75;;;13.10;99.90;;;;;;4860668;29;20032;-81
2021/11/19 07:36:51;;;;;;;25.15;8.52;;;13.10;99.90;;;;;;4843323;29;20029;-80
2021/11/19 07:39:17;;;;;;;16.23;7.88;;;13.20;99.90;;;;;;4844792;29;20032;-80
2021/11/19 07:41:42;;;;;;;24.15;8.13;;;13.10;99.90;;;;;;4843995;29;21473;-80
2021/11/19 07:44:08;;;;;;;15.70;7.15;;;13.20;99.90;;;;;;4860830;29;20116;-79
2021/11/19 07:46:35;;;;;;;24.65;7.75;;;13.20;99.90;;;;;;4860650;29;20554;-81
2021/11/19 07:49:02;;;;;;;22.08;7.63;;;13.20;99.90;;;;;;4860950;29;20037;-79
2021/11/19 07:51:31;;;;;;;19.23;7.80;;;13.20;99.90;;;;;;4848626;29;20029;-80
2021/11/19 07:53:57;;;;;;;35.70;7.70;;;13.20;99.90;;;;;;4843618;29;20040;-81
2021/11/19 07:56:32;;;;;;;30.50;9.07;;;13.20;99.90;;;;;;4844002;29;20044;-82
2021/11/19 07:59:05;;;;;;;33.70;7.88;;;13.20;99.90;;;;;;4861064;29;20037;-81
2021/11/19 08:01:31;;;;;;;19.73;7.13;;;13.20;99.90;;;;;;4843770;29;20065;-81
2021/11/19 08:03:57;;;;;;;20.10;7.20;;;13.20;99.90;;;;;;4843849;29;20048;-81
2021/11/19 08:06:26;;;;;;;12.85;6.47;;;13.20;99.90;;;;;;4860811;29;20025;-84
2021/11/19 08:08:52;;;;;;;22.27;7.13;;;13.20;99.90;;;;;;4854424;29;20041;-83
2021/11/19 08:11:19;;;;;;;13.85;6.28;;;13.30;99.90;;;;;;4859533;29;20040;-86
2021/11/19 08:13:45;;;;;;;10.25;6.20;;;13.30;99.90;;;;;;4862051;29;20112;-86
2021/11/19 08:16:12;;;;;;;17.15;5.97;;;13.30;99.90;;;;;;4848561;29;20041;-85
2021/11/19 08:18:48;;;;;;;17.70;6.88;;;13.30;99.90;;;;;;4849862;29;20157;-85
2021/11/19 08:21:15;;;;;;;10.88;5.57;;;13.40;99.90;;;;;;4867023;29;20436;-86
2021/11/19 08:23:46;;;;;;;8.57;5.65;;;13.40;99.90;;;;;;4867893;29;20151;-82
2021/11/19 08:26:16;;;;;;;12.63;5.75;;;13.40;99.90;;;;;;4857860;29;20380;-86
2021/11/19 08:28:43;;;;;;;16.10;6.28;;;13.40;99.90;;;;;;4850048;29;20029;-87
2021/11/19 08:31:12;;;;;;;13.93;5.57;;;13.40;99.90;;;;;;4846732;29;20137;-82
2021/11/19 08:33:38;;;;;;;10.70;5.13;;;13.40;99.90;;;;;;4847672;29;20061;-84
2021/11/19 08:36:05;;;;;;;13.15;5.25;;;13.40;99.90;;;;;;4865832;29;20029;-84
2021/11/19 08:38:31;;;;;;;16.85;5.18;;;13.50;99.90;;;;;;4864890;29;20041;-84
2021/11/19 08:40:57;;;;;;;16.50;5.45;;;13.50;99.90;;;;;;4864424;29;20028;-86
2021/11/19 08:43:28;;;;;;;9.35;4.75;;;13.50;99.90;;;;;;4864313;29;20045;-85
2021/11/19 08:45:56;;;;;;;11.45;4.90;;;13.50;99.90;;;;;;4864312;29;20025;-83
2021/11/19 08:48:23;;;;;;;13.10;6.18;;;13.50;99.90;;;;;;4864947;29;20494;-84
2021/11/19 08:50:50;;;;;;;11.43;5.15;;;13.40;99.90;;;;;;4864187;29;20026;-82
2021/11/19 08:53:16;;;;;;;12.57;5.45;;;13.40;99.90;;;;;;4847855;29;20033;-86
2021/11/19 08:55:46;;;;;;;11.05;5.35;;;13.50;99.90;;;;;;4866710;29;20531;-84
2021/11/19 08:58:17;;;;;;;8.50;4.53;;;13.50;99.90;;;;;;4864411;29;20050;-86
2021/11/19 09:00:43;;;;;;;8.38;4.80;;;13.50;99.90;;;;;;4847415;29;20038;-80
2021/11/19 09:03:10;;;;;;;16.33;5.43;;;13.50;99.90;;;;;;4847386;29;20067;-81
2021/11/19 09:05:39;;;;;;;8.73;4.90;;;13.50;99.90;;;;;;4861921;29;20034;-81
2021/11/19 09:08:07;;;;;;;14.93;4.53;;;13.60;99.90;;;;;;4862195;29;20049;-81
2021/11/19 09:10:32;;;;;;;10.50;4.65;;;13.60;99.90;;;;;;4845545;29;20118;-81
2021/11/19 09:13:02;;;;;;;9.45;4.15;;;13.60;99.90;;;;;;4846374;29;20467;-81
2021/11/19 09:15:29;;;;;;;11.27;4.70;;;13.60;99.90;;;;;;4864938;29;20033;-81
2021/11/19 09:18:23;;;;;;;17.10;4.63;;;13.70;99.90;;;;;;4860985;29;20483;-82
2021/11/19 09:21:22;;;;;;;13.70;5.00;;;13.70;99.90;;;;;;4861408;29;20045;-80
2021/11/19 09:24:07;;;;;;;12.90;4.75;;;13.70;99.90;;;;;;4858770;29;20061;-80
2021/11/19 09:26:38;;;;;;;14.80;4.25;;;13.70;99.90;;;;;;4861738;29;20052;-80
2021/11/19 09:29:08;;;;;;;12.85;4.68;;;13.80;99.90;;;;;;4857422;29;20112;-80
2021/11/19 09:31:36;;;;;;;13.60;4.50;;;13.80;99.90;;;;;;4852593;29;20434;-81
2021/11/19 09:34:03;;;;;;;10.02;4.70;;;13.90;99.90;;;;;;4838180;29;20026;-81
2021/11/19 09:36:29;;;;;;;14.60;4.13;;;13.90;99.90;;;;;;4851595;29;20459;-82
2021/11/19 09:38:55;;;;;;;12.00;3.88;;;13.90;99.90;;;;;;4859675;29;20375;-81
2021/11/19 09:41:44;;;;;;;10.40;3.60;;;14.00;99.90;;;;;;4844313;29;20029;-82
2021/11/19 09:44:35;;;;;;;11.48;3.90;;;14.00;99.90;;;;;;4839930;29;20034;-81
2021/11/19 09:47:28;;;;;;;118.88;12.15;;;14.20;99.90;;;;;;4861859;29;20045;-81
2021/11/19 09:50:38;;;;;;;7.60;3.45;;;14.20;99.90;;;;;;4862444;29;20026;-80
2021/11/19 09:53:15;;;;;;;8.63;3.33;;;14.20;99.90;;;;;;4827938;29;20052;-80
2021/11/19 09:56:11;;;;;;;6.40;3.40;;;14.20;99.90;;;;;;4861536;29;20029;-82
2021/11/19 09:58:46;;;;;;;9.40;3.22;;;14.20;99.90;;;;;;4849941;29;20040;-81
2021/11/19 10:01:42;;;;;;;11.63;3.10;;;14.40;99.90;;;;;;4861296;29;20025;-81
2021/11/19 10:04:27;;;;;;;5.60;2.88;;;14.40;99.90;;;;;;4861109;29;20033;-82
2021/11/19 10:07:01;;;;;;;11.23;3.78;;;14.40;99.90;;;;;;4843115;29;20045;-81
2021/11/19 10:09:43;;;;;;;9.13;3.58;;;14.40;99.90;;;;;;4845141;29;20041;-80
2021/11/19 10:12:19;;;;;;;8.57;3.25;;;14.40;99.90;;;;;;4848149;29;20038;-82
2021/11/19 10:15:06;;;;;;;6.97;2.42;;;14.40;99.90;;;;;;4844791;29;20039;-81
2021/11/19 10:17:38;;;;;;;;;;;14.40;99.90;;;;;;4844365;29;20080;-81
2021/11/19 10:20:12;;;;;;;7.63;3.13;;;14.40;99.90;;;;;;4863232;29;20500;-81
2021/11/19 10:22:53;;;;;;;11.57;2.70;;;14.50;99.90;;;;;;4862036;29;20190;-82
2021/11/19 10:25:40;;;;;;;5.82;2.28;;;14.40;99.90;;;;;;4863375;29;20030;-83
2021/11/19 10:28:16;;;;;;;4.90;2.08;;;14.40;99.90;;;;;;4862795;29;20033;-81
2021/11/19 10:30:50;;;;;;;4.35;2.60;;;14.30;99.90;;;;;;4846042;29;20021;-82
2021/11/19 10:33:23;;;;;;;7.40;2.55;;;14.20;99.90;;;;;;4841009;29;20045;-85
2021/11/19 10:36:00;;;;;;;7.82;2.80;;;14.40;99.90;;;;;;4846953;29;20049;-85
2021/11/19 10:38:50;;;;;;;4.80;2.50;;;14.40;99.90;;;;;;4829245;29;20403;-84
2021/11/19 10:41:37;;;;;;;4.00;1.98;;;14.40;99.90;;;;;;4837353;29;20048;-87
2021/11/19 10:44:24;;;;;;;4.90;2.95;;;14.40;99.90;;;;;;4846568;29;20042;-81
2021/11/19 10:47:34;;;;;;;7.10;2.13;;;14.30;99.90;;;;;;4849690;29;20522;-83
2021/11/19 10:50:21;;;;;;;9.85;3.05;;;14.20;99.90;;;;;;4845571;29;20830;-84
2021/11/19 10:52:53;;;;;;;3.50;2.67;;;14.20;99.90;;;;;;4844178;29;20496;-83
2021/11/19 10:55:38;;;;;;;4.63;2.53;;;14.30;99.90;;;;;;4846569;29;20524;-87
2021/11/19 10:58:37;;;;;;;8.75;2.30;;;14.40;99.90;;;;;;4863155;29;20046;-86
2021/11/19 11:01:10;;;;;;;12.95;3.53;;;14.50;99.90;;;;;;4847328;29;20086;-84
2021/11/19 11:04:03;;;;;;;7.90;2.33;;;14.50;99.90;;;;;;4865206;29;20041;-83
2021/11/19 11:06:40;;;;;;;8.70;2.80;;;14.60;99.90;;;;;;4862078;29;20495;-85
2021/11/19 11:09:23;;;;;;;9.07;2.95;;;14.70;99.90;;;;;;4847289;29;20049;-85
2021/11/19 11:12:08;;;;;;;9.85;2.85;;;14.80;99.90;;;;;;4846073;29;20041;-83
2021/11/19 11:14:36;;;;;;;13.07;3.05;;;14.90;99.90;;;;;;4864007;29;20089;-85
2021/11/19 11:17:24;;;;;;;10.95;3.38;;;15.00;99.90;;;;;;4843597;29;20554;-84
2021/11/19 11:19:53;;;;;;;11.80;2.55;;;15.10;99.90;;;;;;4844990;29;20082;-84
2021/11/19 11:22:25;;;;;;;5.88;2.60;;;15.10;99.90;;;;;;4847535;29;20424;-85
2021/11/19 11:25:00;;;;;;;5.25;2.45;;;15.10;99.90;;;;;;4845081;29;20030;-84
2021/11/19 11:27:54;;;;;;;6.35;2.45;;;15.10;99.90;;;;;;4846460;29;20101;-85
2021/11/19 11:30:25;;;;;;;10.15;1.95;;;15.10;99.90;;;;;;4863234;29;20037;-85
2021/11/19 11:33:16;;;;;;;7.93;1.90;;;15.10;99.90;;;;;;4844828;29;20026;-85
2021/11/19 11:36:05;;;;;;;8.68;2.28;;;15.00;99.90;;;;;;4846152;29;20026;-85
2021/11/19 11:38:51;;;;;;;7.35;1.98;;;15.00;99.90;;;;;;4845281;29;20033;-85
2021/11/19 11:41:31;;;;;;;13.00;2.35;;;14.80;99.90;;;;;;4849004;29;20037;-87
2021/11/19 11:44:05;;;;;;;3.08;1.20;;;14.70;99.90;;;;;;4844836;29;20458;-87
2021/11/19 11:46:56;;;;;;;8.10;1.90;;;14.60;99.90;;;;;;4846343;29;20033;-86
2021/11/19 11:49:31;;;;;;;11.73;1.58;;;14.50;99.90;;;;;;4835130;29;20046;-83
2021/11/19 11:52:19;;;;;;;5.70;1.48;;;14.40;99.90;;;;;;4849083;29;20030;-85
2021/11/19 11:55:15;;;;;;;6.40;1.52;;;14.50;99.90;;;;;;4864649;29;20078;-86
2021/11/19 11:57:48;;;;;;;8.63;2.10;;;14.60;99.90;;;;;;4863805;29;20116;-85
2021/11/19 12:00:18;;;;;;;4.30;1.40;;;14.80;99.90;;;;;;4863643;29;20399;-83
2021/11/19 12:02:55;;;;;;;4.63;1.10;;;14.80;99.90;;;;;;4856740;29;20463;-86
2021/11/19 12:05:54;;;;;;;5.03;1.17;;;14.80;99.90;;;;;;4865544;29;20386;-87
2021/11/19 12:08:45;;;;;;;9.75;2.05;;;14.70;99.90;;;;;;4848849;29;20026;-85
2021/11/19 12:11:28;;;;;;;4.13;1.20;;;14.80;99.90;;;;;;4856193;29;20030;-86
2021/11/19 12:14:12;;;;;;;4.35;1.30;;;14.90;99.90;;;;;;4840796;29;20069;-86
2021/11/19 12:16:50;;;;;;;5.05;1.20;;;14.90;99.90;;;;;;4849584;29;20053;-85
2021/11/19 12:19:21;;;;;;;;;;;14.90;99.90;;;;;;4848225;29;20427;-84
2021/11/19 12:22:00;;;;;;;2.97;0.93;;;14.80;99.90;;;;;;4831656;29;20275;-84
2021/11/19 12:24:47;;;;;;;7.78;1.75;;;14.80;99.90;;;;;;4832203;29;20029;-85
2021/11/19 12:27:36;;;;;;;2.70;1.35;;;14.80;99.90;;;;;;4856812;29;20037;-85
2021/11/19 12:30:20;;;;;;;5.78;1.35;;;14.90;99.90;;;;;;4851111;29;20033;-85
2021/11/19 12:32:52;;;;;;;4.53;1.30;;;14.90;99.90;;;;;;4861164;29;20056;-86
2021/11/19 12:35:52;;;;;;;5.53;1.10;;;15.00;99.90;;;;;;4865479;29;20041;-85
2021/11/19 12:38:25;;;;;;;4.70;1.00;;;15.00;99.90;;;;;;4848726;29;20050;-86
2021/11/19 12:40:51;;;;;;;5.88;1.25;;;15.20;99.90;;;;;;4837844;29;20566;-85
2021/11/19 12:43:28;;;;;;;1.25;1.13;;;15.30;99.90;;;;;;4849450;29;20380;-85
2021/11/19 12:46:09;;;;;;;1.48;0.80;;;15.40;99.90;;;;;;4866834;29;20030;-85
2021/11/19 12:49:12;;;;;;;5.78;1.10;;;15.30;99.90;;;;;;4849294;29;20439;-84
2021/11/19 12:51:50;;;;;;;7.60;1.73;;;15.20;99.90;;;;;;4866015;29;20045;-85
2021/11/19 12:54:29;;;;;;;10.30;1.33;;;15.00;99.90;;;;;;4847238;29;20064;-87
2021/11/19 12:57:23;;;;;;;2.42;0.90;;;14.90;99.90;;;;;;4850048;29;20045;-84
2021/11/19 13:00:02;;;;;;;5.57;0.95;;;14.80;99.90;;;;;;4848409;29;20575;-86
2021/11/19 13:02:31;;;;;;;6.03;0.90;;;14.80;99.90;;;;;;4848653;29;20080;-86
2021/11/19 13:05:07;;;;;;;5.82;1.60;;;14.80;99.90;;;;;;4866312;29;20080;-86